sensor_id;sensor_type;location;lat;lon;timestamp;P1;durP1;ratioP1;P2;durP2;ratioP2
14116;SDS011;7137;51.436;6.544;2023-07-08T00:00:16;7.20;;;3.00;;
14116;SDS011;7137;51.436;6.544;2023-07-08T00:03:19;4.60;;;2.33;;
14116;SDS011;7137;51.436;6.544;2023-07-08T00:06:25;6.13;;;3.10;;
14116;SDS011;7137;51.436;6.544;2023-07-08T00:09:28;4.83;;;2.30;;
14116;SDS011;7137;51.436;6.544;2023-07-08T00:12:30;5.57;;;3.03;;
14116;SDS011;7137;51.436;6.544;2023-07-08T00:15:32;4.47;;;2.47;;
14116;SDS011;7137;51.436;6.544;2023-07-08T00:18:34;4.93;;;2.70;;
14116;SDS011;7137;51.436;6.544;2023-07-08T00:21:37;6.07;;;2.87;;
14116;SDS011;7137;51.436;6.544;2023-07-08T00:24:39;5.50;;;3.07;;
14116;SDS011;7137;51.436;6.544;2023-07-08T00:27:40;4.47;;;2.57;;
14116;SDS011;7137;51.436;6.544;2023-07-08T00:30:42;5.17;;;2.50;;
14116;SDS011;7137;51.436;6.544;2023-07-08T00:33:44;5.73;;;2.93;;
14116;SDS011;7137;51.436;6.544;2023-07-08T00:36:47;5.63;;;2.90;;
14116;SDS011;7137;51.436;6.544;2023-07-08T00:39:48;5.20;;;3.13;;
14116;SDS011;7137;51.436;6.544;2023-07-08T00:42:50;5.83;;;2.83;;
14116;SDS011;7137;51.436;6.544;2023-07-08T00:45:53;5.83;;;2.73;;
14116;SDS011;7137;51.436;6.544;2023-07-08T00:49:09;5.47;;;3.00;;
14116;SDS011;7137;51.436;6.544;2023-07-08T00:52:28;5.40;;;2.77;;
14116;SDS011;7137;51.436;6.544;2023-07-08T00:55:30;5.20;;;2.53;;
14116;SDS011;7137;51.436;6.544;2023-07-08T00:58:32;7.30;;;3.10;;
14116;SDS011;7137;51.436;6.544;2023-07-08T01:01:36;6.40;;;3.30;;
14116;SDS011;7137;51.436;6.544;2023-07-08T01:04:42;5.50;;;3.10;;
14116;SDS011;7137;51.436;6.544;2023-07-08T01:07:50;6.63;;;3.10;;
14116;SDS011;7137;51.436;6.544;2023-07-08T01:10:57;6.27;;;3.10;;
14116;SDS011;7137;51.436;6.544;2023-07-08T01:14:02;5.83;;;3.07;;
14116;SDS011;7137;51.436;6.544;2023-07-08T01:17:07;6.17;;;3.20;;
14116;SDS011;7137;51.436;6.544;2023-07-08T01:20:14;5.67;;;3.10;;
14116;SDS011;7137;51.436;6.544;2023-07-08T01:23:17;6.50;;;3.30;;
14116;SDS011;7137;51.436;6.544;2023-07-08T01:26:20;6.53;;;3.33;;
14116;SDS011;7137;51.436;6.544;2023-07-08T01:29:25;7.07;;;2.97;;
14116;SDS011;7137;51.436;6.544;2023-07-08T01:32:26;5.70;;;2.93;;
14116;SDS011;7137;51.436;6.544;2023-07-08T01:35:29;5.13;;;3.10;;
14116;SDS011;7137;51.436;6.544;2023-07-08T01:38:32;6.10;;;2.90;;
14116;SDS011;7137;51.436;6.544;2023-07-08T01:41:34;5.27;;;2.60;;
14116;SDS011;7137;51.436;6.544;2023-07-08T01:44:36;5.20;;;3.07;;
14116;SDS011;7137;51.436;6.544;2023-07-08T01:47:38;5.17;;;3.03;;
14116;SDS011;7137;51.436;6.544;2023-07-08T01:50:42;4.33;;;2.70;;
14116;SDS011;7137;51.436;6.544;2023-07-08T01:53:49;5.17;;;2.90;;
14116;SDS011;7137;51.436;6.544;2023-07-08T01:56:54;5.77;;;2.80;;
14116;SDS011;7137;51.436;6.544;2023-07-08T01:59:56;5.17;;;2.70;;
14116;SDS011;7137;51.436;6.544;2023-07-08T02:02:58;4.30;;;2.80;;
14116;SDS011;7137;51.436;6.544;2023-07-08T02:06:00;4.80;;;2.63;;
14116;SDS011;7137;51.436;6.544;2023-07-08T02:09:04;7.63;;;3.10;;
14116;SDS011;7137;51.436;6.544;2023-07-08T02:12:06;5.63;;;2.60;;
14116;SDS011;7137;51.436;6.544;2023-07-08T02:15:09;6.07;;;2.80;;
14116;SDS011;7137;51.436;6.544;2023-07-08T02:18:11;4.60;;;2.60;;
14116;SDS011;7137;51.436;6.544;2023-07-08T02:25:08;6.00;;;2.90;;
14116;SDS011;7137;51.436;6.544;2023-07-08T02:28:10;6.33;;;3.00;;
14116;SDS011;7137;51.436;6.544;2023-07-08T02:31:11;7.03;;;3.27;;
14116;SDS011;7137;51.436;6.544;2023-07-08T02:34:13;6.40;;;3.03;;
14116;SDS011;7137;51.436;6.544;2023-07-08T02:37:14;5.50;;;3.07;;
14116;SDS011;7137;51.436;6.544;2023-07-08T02:40:17;6.87;;;3.30;;
14116;SDS011;7137;51.436;6.544;2023-07-08T02:43:19;5.63;;;2.90;;
14116;SDS011;7137;51.436;6.544;2023-07-08T02:46:20;7.73;;;2.90;;
14116;SDS011;7137;51.436;6.544;2023-07-08T02:49:22;7.23;;;3.27;;
14116;SDS011;7137;51.436;6.544;2023-07-08T02:52:23;5.67;;;3.23;;
14116;SDS011;7137;51.436;6.544;2023-07-08T02:55:26;6.40;;;3.23;;
14116;SDS011;7137;51.436;6.544;2023-07-08T02:58:28;5.73;;;2.97;;
14116;SDS011;7137;51.436;6.544;2023-07-08T03:01:30;6.43;;;3.17;;
14116;SDS011;7137;51.436;6.544;2023-07-08T03:04:34;6.97;;;2.93;;
14116;SDS011;7137;51.436;6.544;2023-07-08T03:07:39;8.03;;;3.33;;
14116;SDS011;7137;51.436;6.544;2023-07-08T03:10:41;7.43;;;3.20;;
14116;SDS011;7137;51.436;6.544;2023-07-08T03:13:49;5.97;;;2.80;;
14116;SDS011;7137;51.436;6.544;2023-07-08T03:16:52;5.03;;;2.80;;
14116;SDS011;7137;51.436;6.544;2023-07-08T03:19:53;6.20;;;3.10;;
14116;SDS011;7137;51.436;6.544;2023-07-08T03:22:55;6.43;;;3.07;;
14116;SDS011;7137;51.436;6.544;2023-07-08T03:25:58;5.23;;;3.00;;
14116;SDS011;7137;51.436;6.544;2023-07-08T03:29:00;6.43;;;3.17;;
14116;SDS011;7137;51.436;6.544;2023-07-08T03:32:01;6.47;;;3.10;;
14116;SDS011;7137;51.436;6.544;2023-07-08T03:35:03;6.50;;;3.20;;
14116;SDS011;7137;51.436;6.544;2023-07-08T03:38:06;7.20;;;2.77;;
14116;SDS011;7137;51.436;6.544;2023-07-08T03:41:09;5.37;;;3.00;;
14116;SDS011;7137;51.436;6.544;2023-07-08T03:44:11;4.87;;;2.70;;
14116;SDS011;7137;51.436;6.544;2023-07-08T03:47:12;6.30;;;2.97;;
14116;SDS011;7137;51.436;6.544;2023-07-08T03:50:17;5.40;;;2.70;;
14116;SDS011;7137;51.436;6.544;2023-07-08T03:53:20;5.97;;;2.87;;
14116;SDS011;7137;51.436;6.544;2023-07-08T03:56:23;4.77;;;2.87;;
14116;SDS011;7137;51.436;6.544;2023-07-08T03:59:24;5.83;;;3.07;;
14116;SDS011;7137;51.436;6.544;2023-07-08T04:02:26;5.63;;;2.57;;
14116;SDS011;7137;51.436;6.544;2023-07-08T04:05:28;4.73;;;2.77;;
14116;SDS011;7137;51.436;6.544;2023-07-08T04:08:29;5.50;;;2.60;;
14116;SDS011;7137;51.436;6.544;2023-07-08T04:11:32;4.83;;;3.00;;
14116;SDS011;7137;51.436;6.544;2023-07-08T04:14:34;6.07;;;3.20;;
14116;SDS011;7137;51.436;6.544;2023-07-08T04:17:35;6.50;;;3.03;;
14116;SDS011;7137;51.436;6.544;2023-07-08T04:20:42;5.90;;;2.90;;
14116;SDS011;7137;51.436;6.544;2023-07-08T04:23:43;7.67;;;2.90;;
14116;SDS011;7137;51.436;6.544;2023-07-08T04:26:47;6.03;;;3.00;;
14116;SDS011;7137;51.436;6.544;2023-07-08T04:29:49;6.57;;;3.30;;
14116;SDS011;7137;51.436;6.544;2023-07-08T04:32:51;5.77;;;3.70;;
14116;SDS011;7137;51.436;6.544;2023-07-08T04:35:53;5.63;;;3.20;;
14116;SDS011;7137;51.436;6.544;2023-07-08T04:38:56;6.30;;;3.10;;
14116;SDS011;7137;51.436;6.544;2023-07-08T04:41:59;5.40;;;3.00;;
14116;SDS011;7137;51.436;6.544;2023-07-08T04:45:01;6.13;;;3.20;;
14116;SDS011;7137;51.436;6.544;2023-07-08T04:48:04;5.30;;;2.87;;
14116;SDS011;7137;51.436;6.544;2023-07-08T04:51:12;7.27;;;3.37;;
14116;SDS011;7137;51.436;6.544;2023-07-08T04:54:14;4.90;;;3.00;;
14116;SDS011;7137;51.436;6.544;2023-07-08T04:57:17;5.57;;;3.10;;
14116;SDS011;7137;51.436;6.544;2023-07-08T05:00:21;5.27;;;3.03;;
14116;SDS011;7137;51.436;6.544;2023-07-08T05:03:23;5.47;;;2.90;;
14116;SDS011;7137;51.436;6.544;2023-07-08T05:06:25;5.23;;;2.93;;
14116;SDS011;7137;51.436;6.544;2023-07-08T05:09:26;7.17;;;3.20;;
14116;SDS011;7137;51.436;6.544;2023-07-08T05:12:30;5.00;;;3.00;;
14116;SDS011;7137;51.436;6.544;2023-07-08T05:15:32;5.60;;;3.00;;
14116;SDS011;7137;51.436;6.544;2023-07-08T05:18:33;5.13;;;3.00;;
14116;SDS011;7137;51.436;6.544;2023-07-08T05:21:35;6.57;;;3.00;;
14116;SDS011;7137;51.436;6.544;2023-07-08T05:24:38;4.70;;;3.00;;
14116;SDS011;7137;51.436;6.544;2023-07-08T05:27:41;5.30;;;3.23;;
14116;SDS011;7137;51.436;6.544;2023-07-08T05:30:43;6.40;;;3.10;;
14116;SDS011;7137;51.436;6.544;2023-07-08T05:33:44;6.63;;;3.40;;
14116;SDS011;7137;51.436;6.544;2023-07-08T05:36:46;6.13;;;3.27;;
14116;SDS011;7137;51.436;6.544;2023-07-08T05:39:47;5.00;;;3.07;;
14116;SDS011;7137;51.436;6.544;2023-07-08T05:42:50;6.60;;;2.87;;
14116;SDS011;7137;51.436;6.544;2023-07-08T05:45:56;5.23;;;2.90;;
14116;SDS011;7137;51.436;6.544;2023-07-08T05:48:58;7.57;;;3.30;;
14116;SDS011;7137;51.436;6.544;2023-07-08T05:52:00;5.10;;;2.80;;
14116;SDS011;7137;51.436;6.544;2023-07-08T05:55:07;6.87;;;3.17;;
14116;SDS011;7137;51.436;6.544;2023-07-08T05:58:11;5.77;;;3.17;;
14116;SDS011;7137;51.436;6.544;2023-07-08T06:01:15;5.13;;;2.93;;
14116;SDS011;7137;51.436;6.544;2023-07-08T06:04:16;4.90;;;2.80;;
14116;SDS011;7137;51.436;6.544;2023-07-08T06:07:18;5.30;;;3.20;;
14116;SDS011;7137;51.436;6.544;2023-07-08T06:10:20;7.07;;;3.20;;
14116;SDS011;7137;51.436;6.544;2023-07-08T06:13:23;5.63;;;3.30;;
14116;SDS011;7137;51.436;6.544;2023-07-08T06:16:24;6.43;;;3.03;;
14116;SDS011;7137;51.436;6.544;2023-07-08T06:19:26;4.73;;;3.07;;
14116;SDS011;7137;51.436;6.544;2023-07-08T06:22:27;5.40;;;3.47;;
14116;SDS011;7137;51.436;6.544;2023-07-08T06:25:29;6.40;;;3.47;;
14116;SDS011;7137;51.436;6.544;2023-07-08T06:28:34;6.53;;;3.47;;
14116;SDS011;7137;51.436;6.544;2023-07-08T06:31:35;7.33;;;3.93;;
14116;SDS011;7137;51.436;6.544;2023-07-08T06:34:37;8.13;;;3.93;;
14116;SDS011;7137;51.436;6.544;2023-07-08T06:37:38;8.03;;;3.90;;
14116;SDS011;7137;51.436;6.544;2023-07-08T06:40:40;7.13;;;4.03;;
14116;SDS011;7137;51.436;6.544;2023-07-08T06:43:43;6.93;;;3.87;;
14116;SDS011;7137;51.436;6.544;2023-07-08T06:46:45;8.23;;;3.90;;
14116;SDS011;7137;51.436;6.544;2023-07-08T06:49:46;6.27;;;4.00;;
14116;SDS011;7137;51.436;6.544;2023-07-08T06:52:48;7.97;;;3.70;;
14116;SDS011;7137;51.436;6.544;2023-07-08T06:55:50;5.90;;;3.40;;
14116;SDS011;7137;51.436;6.544;2023-07-08T06:58:53;7.30;;;3.93;;
14116;SDS011;7137;51.436;6.544;2023-07-08T07:01:54;5.67;;;3.87;;
14116;SDS011;7137;51.436;6.544;2023-07-08T07:04:56;5.87;;;3.87;;
14116;SDS011;7137;51.436;6.544;2023-07-08T07:07:57;6.13;;;3.90;;
14116;SDS011;7137;51.436;6.544;2023-07-08T07:10:59;6.27;;;3.73;;
14116;SDS011;7137;51.436;6.544;2023-07-08T07:14:02;6.47;;;4.00;;
14116;SDS011;7137;51.436;6.544;2023-07-08T07:17:04;6.43;;;3.90;;
14116;SDS011;7137;51.436;6.544;2023-07-08T07:20:06;6.68;;;4.20;;
14116;SDS011;7137;51.436;6.544;2023-07-08T07:23:09;7.07;;;5.03;;
14116;SDS011;7137;51.436;6.544;2023-07-08T07:26:10;6.40;;;4.37;;
14116;SDS011;7137;51.436;6.544;2023-07-08T07:29:15;5.75;;;4.28;;
14116;SDS011;7137;51.436;6.544;2023-07-08T07:32:18;6.00;;;4.60;;
14116;SDS011;7137;51.436;6.544;2023-07-08T07:35:23;5.72;;;4.13;;
14116;SDS011;7137;51.436;6.544;2023-07-08T07:38:25;5.75;;;4.25;;
14116;SDS011;7137;51.436;6.544;2023-07-08T07:41:28;5.90;;;4.38;;
14116;SDS011;7137;51.436;6.544;2023-07-08T07:44:31;6.03;;;4.50;;
14116;SDS011;7137;51.436;6.544;2023-07-08T07:47:33;6.25;;;4.53;;
14116;SDS011;7137;51.436;6.544;2023-07-08T07:50:35;6.72;;;4.88;;
14116;SDS011;7137;51.436;6.544;2023-07-08T07:53:36;5.07;;;4.00;;
14116;SDS011;7137;51.436;6.544;2023-07-08T07:56:38;6.22;;;5.00;;
14116;SDS011;7137;51.436;6.544;2023-07-08T07:59:41;5.80;;;4.70;;
14116;SDS011;7137;51.436;6.544;2023-07-08T08:02:43;5.97;;;4.75;;
14116;SDS011;7137;51.436;6.544;2023-07-08T08:05:45;6.50;;;4.50;;
14116;SDS011;7137;51.436;6.544;2023-07-08T08:08:47;8.57;;;4.70;;
14116;SDS011;7137;51.436;6.544;2023-07-08T08:11:49;7.00;;;4.40;;
14116;SDS011;7137;51.436;6.544;2023-07-08T08:14:53;6.95;;;4.82;;
14116;SDS011;7137;51.436;6.544;2023-07-08T08:17:55;7.28;;;5.07;;
14116;SDS011;7137;51.436;6.544;2023-07-08T08:20:56;6.38;;;4.72;;
14116;SDS011;7137;51.436;6.544;2023-07-08T08:23:58;6.32;;;5.18;;
14116;SDS011;7137;51.436;6.544;2023-07-08T08:27:00;6.22;;;4.53;;
14116;SDS011;7137;51.436;6.544;2023-07-08T08:30:04;7.20;;;4.63;;
14116;SDS011;7137;51.436;6.544;2023-07-08T08:33:06;6.90;;;4.82;;
14116;SDS011;7137;51.436;6.544;2023-07-08T08:36:08;6.60;;;4.70;;
14116;SDS011;7137;51.436;6.544;2023-07-08T08:39:09;6.28;;;4.93;;
14116;SDS011;7137;51.436;6.544;2023-07-08T08:42:13;5.88;;;4.80;;
14116;SDS011;7137;51.436;6.544;2023-07-08T08:45:24;7.43;;;4.72;;
14116;SDS011;7137;51.436;6.544;2023-07-08T08:48:28;6.40;;;4.82;;
14116;SDS011;7137;51.436;6.544;2023-07-08T08:51:33;6.68;;;5.03;;
14116;SDS011;7137;51.436;6.544;2023-07-08T08:54:35;6.90;;;5.10;;
14116;SDS011;7137;51.436;6.544;2023-07-08T08:57:40;8.50;;;5.10;;
14116;SDS011;7137;51.436;6.544;2023-07-08T09:00:49;7.05;;;4.90;;
14116;SDS011;7137;51.436;6.544;2023-07-08T09:03:55;7.38;;;4.82;;
14116;SDS011;7137;51.436;6.544;2023-07-08T09:07:01;8.00;;;5.00;;
14116;SDS011;7137;51.436;6.544;2023-07-08T09:10:15;7.47;;;5.07;;
14116;SDS011;7137;51.436;6.544;2023-07-08T09:13:26;7.10;;;5.28;;
14116;SDS011;7137;51.436;6.544;2023-07-08T09:16:38;8.00;;;5.80;;
14116;SDS011;7137;51.436;6.544;2023-07-08T09:19:46;8.48;;;5.53;;
14116;SDS011;7137;51.436;6.544;2023-07-08T09:22:53;7.65;;;5.50;;
14116;SDS011;7137;51.436;6.544;2023-07-08T09:26:01;6.93;;;5.20;;
14116;SDS011;7137;51.436;6.544;2023-07-08T09:29:07;6.28;;;5.32;;
14116;SDS011;7137;51.436;6.544;2023-07-08T09:32:19;10.50;;;5.57;;
14116;SDS011;7137;51.436;6.544;2023-07-08T09:35:22;6.43;;;5.05;;
14116;SDS011;7137;51.436;6.544;2023-07-08T09:38:25;7.38;;;5.30;;
14116;SDS011;7137;51.436;6.544;2023-07-08T09:41:31;6.22;;;4.97;;
14116;SDS011;7137;51.436;6.544;2023-07-08T09:44:34;8.55;;;5.18;;
14116;SDS011;7137;51.436;6.544;2023-07-08T09:47:42;7.03;;;5.00;;
14116;SDS011;7137;51.436;6.544;2023-07-08T09:50:47;5.80;;;4.72;;
14116;SDS011;7137;51.436;6.544;2023-07-08T09:53:50;6.50;;;4.88;;
14116;SDS011;7137;51.436;6.544;2023-07-08T09:56:55;8.02;;;5.43;;
14116;SDS011;7137;51.436;6.544;2023-07-08T10:00:00;7.28;;;4.90;;
14116;SDS011;7137;51.436;6.544;2023-07-08T10:03:11;6.47;;;5.10;;
14116;SDS011;7137;51.436;6.544;2023-07-08T10:06:20;6.53;;;5.00;;
14116;SDS011;7137;51.436;6.544;2023-07-08T10:09:24;6.60;;;4.68;;
14116;SDS011;7137;51.436;6.544;2023-07-08T10:12:26;7.00;;;4.95;;
14116;SDS011;7137;51.436;6.544;2023-07-08T10:15:31;5.90;;;4.60;;
14116;SDS011;7137;51.436;6.544;2023-07-08T10:18:37;6.60;;;4.45;;
14116;SDS011;7137;51.436;6.544;2023-07-08T10:21:41;5.70;;;4.38;;
14116;SDS011;7137;51.436;6.544;2023-07-08T10:24:55;6.90;;;4.65;;
14116;SDS011;7137;51.436;6.544;2023-07-08T10:28:06;6.47;;;5.00;;
14116;SDS011;7137;51.436;6.544;2023-07-08T10:31:25;6.93;;;4.57;;
14116;SDS011;7137;51.436;6.544;2023-07-08T10:34:36;6.15;;;4.38;;
14116;SDS011;7137;51.436;6.544;2023-07-08T10:37:52;6.63;;;4.80;;
14116;SDS011;7137;51.436;6.544;2023-07-08T10:41:09;5.93;;;4.45;;
14116;SDS011;7137;51.436;6.544;2023-07-08T10:44:20;6.80;;;4.57;;
14116;SDS011;7137;51.436;6.544;2023-07-08T10:47:38;7.30;;;4.57;;
14116;SDS011;7137;51.436;6.544;2023-07-08T10:51:04;7.50;;;4.40;;
14116;SDS011;7137;51.436;6.544;2023-07-08T10:54:20;6.13;;;3.95;;
14116;SDS011;7137;51.436;6.544;2023-07-08T10:57:59;5.90;;;3.92;;
14116;SDS011;7137;51.436;6.544;2023-07-08T11:01:11;6.00;;;4.22;;
14116;SDS011;7137;51.436;6.544;2023-07-08T11:04:25;6.18;;;4.25;;
14116;SDS011;7137;51.436;6.544;2023-07-08T11:07:43;5.88;;;4.25;;
14116;SDS011;7137;51.436;6.544;2023-07-08T11:10:49;6.85;;;4.28;;
14116;SDS011;7137;51.436;6.544;2023-07-08T11:13:55;8.10;;;4.30;;
14116;SDS011;7137;51.436;6.544;2023-07-08T11:17:04;7.57;;;4.00;;
14116;SDS011;7137;51.436;6.544;2023-07-08T11:20:17;6.10;;;3.70;;
14116;SDS011;7137;51.436;6.544;2023-07-08T11:23:28;5.68;;;3.95;;
14116;SDS011;7137;51.436;6.544;2023-07-08T11:26:36;6.63;;;4.60;;
14116;SDS011;7137;51.436;6.544;2023-07-08T11:29:44;7.60;;;4.20;;
14116;SDS011;7137;51.436;6.544;2023-07-08T11:32:52;7.65;;;4.32;;
14116;SDS011;7137;51.436;6.544;2023-07-08T11:36:03;6.90;;;4.10;;
14116;SDS011;7137;51.436;6.544;2023-07-08T11:39:25;6.22;;;4.10;;
14116;SDS011;7137;51.436;6.544;2023-07-08T11:42:31;5.70;;;3.95;;
14116;SDS011;7137;51.436;6.544;2023-07-08T11:45:37;7.68;;;4.10;;
14116;SDS011;7137;51.436;6.544;2023-07-08T11:48:43;7.72;;;4.20;;
14116;SDS011;7137;51.436;6.544;2023-07-08T11:51:47;8.00;;;4.20;;
14116;SDS011;7137;51.436;6.544;2023-07-08T11:54:56;6.40;;;4.32;;
14116;SDS011;7137;51.436;6.544;2023-07-08T11:58:06;5.93;;;4.25;;
14116;SDS011;7137;51.436;6.544;2023-07-08T12:01:16;7.00;;;4.22;;
14116;SDS011;7137;51.436;6.544;2023-07-08T12:04:26;8.82;;;4.85;;
14116;SDS011;7137;51.436;6.544;2023-07-08T12:07:30;6.20;;;4.35;;
14116;SDS011;7137;51.436;6.544;2023-07-08T12:10:37;6.05;;;4.15;;
14116;SDS011;7137;51.436;6.544;2023-07-08T12:13:40;6.40;;;4.25;;
14116;SDS011;7137;51.436;6.544;2023-07-08T12:16:42;5.88;;;4.10;;
14116;SDS011;7137;51.436;6.544;2023-07-08T12:19:43;7.38;;;3.75;;
14116;SDS011;7137;51.436;6.544;2023-07-08T12:22:48;6.35;;;4.22;;
14116;SDS011;7137;51.436;6.544;2023-07-08T12:25:52;5.80;;;3.88;;
14116;SDS011;7137;51.436;6.544;2023-07-08T12:28:55;8.60;;;4.63;;
14116;SDS011;7137;51.436;6.544;2023-07-08T12:31:57;6.85;;;4.45;;
14116;SDS011;7137;51.436;6.544;2023-07-08T12:35:00;6.32;;;4.70;;
14116;SDS011;7137;51.436;6.544;2023-07-08T12:38:05;6.07;;;4.20;;
14116;SDS011;7137;51.436;6.544;2023-07-08T12:41:18;6.30;;;4.20;;
14116;SDS011;7137;51.436;6.544;2023-07-08T12:44:22;6.82;;;4.32;;
14116;SDS011;7137;51.436;6.544;2023-07-08T12:47:25;5.97;;;3.92;;
14116;SDS011;7137;51.436;6.544;2023-07-08T12:50:27;5.88;;;3.60;;
14116;SDS011;7137;51.436;6.544;2023-07-08T12:53:29;7.72;;;3.83;;
14116;SDS011;7137;51.436;6.544;2023-07-08T12:56:33;5.43;;;3.53;;
14116;SDS011;7137;51.436;6.544;2023-07-08T12:59:37;7.75;;;3.90;;
14116;SDS011;7137;51.436;6.544;2023-07-08T13:02:40;5.50;;;4.05;;
14116;SDS011;7137;51.436;6.544;2023-07-08T13:05:45;7.72;;;3.97;;
14116;SDS011;7137;51.436;6.544;2023-07-08T13:08:47;6.63;;;3.70;;
14116;SDS011;7137;51.436;6.544;2023-07-08T13:11:50;6.20;;;3.92;;
14116;SDS011;7137;51.436;6.544;2023-07-08T13:14:56;6.00;;;3.90;;
14116;SDS011;7137;51.436;6.544;2023-07-08T13:18:00;6.63;;;3.90;;
14116;SDS011;7137;51.436;6.544;2023-07-08T13:21:02;6.65;;;3.92;;
14116;SDS011;7137;51.436;6.544;2023-07-08T13:24:07;5.97;;;3.65;;
14116;SDS011;7137;51.436;6.544;2023-07-08T13:27:20;5.65;;;3.60;;
14116;SDS011;7137;51.436;6.544;2023-07-08T13:30:24;6.00;;;3.55;;
14116;SDS011;7137;51.436;6.544;2023-07-08T13:33:28;6.43;;;3.67;;
14116;SDS011;7137;51.436;6.544;2023-07-08T13:36:32;5.90;;;3.92;;
14116;SDS011;7137;51.436;6.544;2023-07-08T13:39:36;5.40;;;3.67;;
14116;SDS011;7137;51.436;6.544;2023-07-08T13:42:39;5.43;;;3.80;;
14116;SDS011;7137;51.436;6.544;2023-07-08T13:45:48;10.52;;;4.30;;
14116;SDS011;7137;51.436;6.544;2023-07-08T13:48:49;6.82;;;4.30;;
14116;SDS011;7137;51.436;6.544;2023-07-08T13:52:03;7.65;;;4.38;;
14116;SDS011;7137;51.436;6.544;2023-07-08T13:55:09;7.90;;;4.18;;
14116;SDS011;7137;51.436;6.544;2023-07-08T13:58:20;7.18;;;4.05;;
14116;SDS011;7137;51.436;6.544;2023-07-08T14:05:18;6.65;;;4.13;;
14116;SDS011;7137;51.436;6.544;2023-07-08T14:08:21;7.50;;;4.47;;
14116;SDS011;7137;51.436;6.544;2023-07-08T14:11:23;7.13;;;3.90;;
14116;SDS011;7137;51.436;6.544;2023-07-08T14:14:26;5.97;;;3.78;;
14116;SDS011;7137;51.436;6.544;2023-07-08T14:17:27;6.65;;;3.92;;
14116;SDS011;7137;51.436;6.544;2023-07-08T14:20:29;5.70;;;3.92;;
14116;SDS011;7137;51.436;6.544;2023-07-08T14:23:31;5.82;;;4.05;;
14116;SDS011;7137;51.436;6.544;2023-07-08T14:26:32;8.32;;;3.80;;
14116;SDS011;7137;51.436;6.544;2023-07-08T14:29:35;6.13;;;3.80;;
14116;SDS011;7137;51.436;6.544;2023-07-08T14:32:36;5.78;;;4.15;;
14116;SDS011;7137;51.436;6.544;2023-07-08T14:35:38;6.57;;;4.50;;
14116;SDS011;7137;51.436;6.544;2023-07-08T14:38:40;6.10;;;3.80;;
14116;SDS011;7137;51.436;6.544;2023-07-08T14:41:42;6.30;;;4.35;;
14116;SDS011;7137;51.436;6.544;2023-07-08T14:44:47;6.78;;;4.18;;
14116;SDS011;7137;51.436;6.544;2023-07-08T14:47:50;6.03;;;4.32;;
14116;SDS011;7137;51.436;6.544;2023-07-08T14:50:52;6.32;;;4.20;;
14116;SDS011;7137;51.436;6.544;2023-07-08T14:53:53;8.50;;;4.15;;
14116;SDS011;7137;51.436;6.544;2023-07-08T14:56:55;5.40;;;3.83;;
14116;SDS011;7137;51.436;6.544;2023-07-08T14:59:59;6.30;;;4.15;;
14116;SDS011;7137;51.436;6.544;2023-07-08T15:03:04;6.22;;;3.50;;
14116;SDS011;7137;51.436;6.544;2023-07-08T15:06:08;6.32;;;3.90;;
14116;SDS011;7137;51.436;6.544;2023-07-08T15:09:11;5.75;;;3.70;;
14116;SDS011;7137;51.436;6.544;2023-07-08T15:12:13;5.50;;;3.58;;
14116;SDS011;7137;51.436;6.544;2023-07-08T15:15:17;6.90;;;3.60;;
14116;SDS011;7137;51.436;6.544;2023-07-08T15:18:23;5.68;;;3.63;;
14116;SDS011;7137;51.436;6.544;2023-07-08T15:21:24;6.15;;;3.60;;
14116;SDS011;7137;51.436;6.544;2023-07-08T15:24:25;6.60;;;4.18;;
14116;SDS011;7137;51.436;6.544;2023-07-08T15:27:27;6.75;;;4.00;;
14116;SDS011;7137;51.436;6.544;2023-07-08T15:30:30;5.75;;;3.67;;
14116;SDS011;7137;51.436;6.544;2023-07-08T15:33:32;6.72;;;3.85;;
14116;SDS011;7137;51.436;6.544;2023-07-08T15:36:33;5.85;;;4.13;;
14116;SDS011;7137;51.436;6.544;2023-07-08T15:39:35;5.57;;;3.80;;
14116;SDS011;7137;51.436;6.544;2023-07-08T15:42:37;6.05;;;4.30;;
14116;SDS011;7137;51.436;6.544;2023-07-08T15:45:40;8.18;;;4.65;;
14116;SDS011;7137;51.436;6.544;2023-07-08T15:48:43;9.38;;;4.38;;
14116;SDS011;7137;51.436;6.544;2023-07-08T15:51:45;6.80;;;4.20;;
14116;SDS011;7137;51.436;6.544;2023-07-08T15:54:46;6.65;;;4.07;;
14116;SDS011;7137;51.436;6.544;2023-07-08T15:57:48;7.45;;;4.18;;
14116;SDS011;7137;51.436;6.544;2023-07-08T16:00:56;5.95;;;4.07;;
14116;SDS011;7137;51.436;6.544;2023-07-08T16:03:59;7.43;;;4.30;;
14116;SDS011;7137;51.436;6.544;2023-07-08T16:07:00;8.40;;;4.63;;
14116;SDS011;7137;51.436;6.544;2023-07-08T16:10:02;5.90;;;3.60;;
14116;SDS011;7137;51.436;6.544;2023-07-08T16:13:04;6.80;;;3.95;;
14116;SDS011;7137;51.436;6.544;2023-07-08T16:16:08;7.38;;;4.45;;
14116;SDS011;7137;51.436;6.544;2023-07-08T16:19:12;6.95;;;4.40;;
14116;SDS011;7137;51.436;6.544;2023-07-08T16:22:15;6.28;;;4.35;;
14116;SDS011;7137;51.436;6.544;2023-07-08T16:25:17;7.68;;;4.72;;
14116;SDS011;7137;51.436;6.544;2023-07-08T16:28:22;5.60;;;3.67;;
14116;SDS011;7137;51.436;6.544;2023-07-08T16:31:30;6.28;;;4.30;;
14116;SDS011;7137;51.436;6.544;2023-07-08T16:34:31;6.97;;;4.13;;
14116;SDS011;7137;51.436;6.544;2023-07-08T16:37:33;7.53;;;4.03;;
14116;SDS011;7137;51.436;6.544;2023-07-08T16:40:34;6.22;;;4.03;;
14116;SDS011;7137;51.436;6.544;2023-07-08T16:43:36;6.70;;;4.47;;
14116;SDS011;7137;51.436;6.544;2023-07-08T16:46:39;6.28;;;4.20;;
14116;SDS011;7137;51.436;6.544;2023-07-08T16:49:41;7.65;;;5.60;;
14116;SDS011;7137;51.436;6.544;2023-07-08T16:52:42;6.32;;;4.60;;
14116;SDS011;7137;51.436;6.544;2023-07-08T16:55:44;7.13;;;4.65;;
14116;SDS011;7137;51.436;6.544;2023-07-08T16:58:46;7.80;;;4.45;;
14116;SDS011;7137;51.436;6.544;2023-07-08T17:01:49;7.28;;;4.00;;
14116;SDS011;7137;51.436;6.544;2023-07-08T17:04:52;5.93;;;3.92;;
14116;SDS011;7137;51.436;6.544;2023-07-08T17:07:55;6.40;;;4.00;;
14116;SDS011;7137;51.436;6.544;2023-07-08T17:10:56;6.90;;;4.32;;
14116;SDS011;7137;51.436;6.544;2023-07-08T17:13:58;5.50;;;3.85;;
14116;SDS011;7137;51.436;6.544;2023-07-08T17:17:01;6.35;;;4.00;;
14116;SDS011;7137;51.436;6.544;2023-07-08T17:20:13;6.00;;;3.80;;
14116;SDS011;7137;51.436;6.544;2023-07-08T17:23:20;8.05;;;4.20;;
14116;SDS011;7137;51.436;6.544;2023-07-08T17:26:23;6.53;;;4.00;;
14116;SDS011;7137;51.436;6.544;2023-07-08T17:29:24;6.47;;;4.25;;
14116;SDS011;7137;51.436;6.544;2023-07-08T17:32:27;6.93;;;3.97;;
14116;SDS011;7137;51.436;6.544;2023-07-08T17:35:29;8.77;;;4.00;;
14116;SDS011;7137;51.436;6.544;2023-07-08T17:38:39;6.07;;;4.00;;
14116;SDS011;7137;51.436;6.544;2023-07-08T17:41:44;7.63;;;4.22;;
14116;SDS011;7137;51.436;6.544;2023-07-08T17:44:49;5.85;;;3.78;;
14116;SDS011;7137;51.436;6.544;2023-07-08T17:47:52;7.10;;;4.45;;
14116;SDS011;7137;51.436;6.544;2023-07-08T17:50:53;7.53;;;4.47;;
14116;SDS011;7137;51.436;6.544;2023-07-08T17:53:55;8.02;;;4.60;;
14116;SDS011;7137;51.436;6.544;2023-07-08T17:56:56;8.70;;;3.97;;
14116;SDS011;7137;51.436;6.544;2023-07-08T18:00:00;7.22;;;4.40;;
14116;SDS011;7137;51.436;6.544;2023-07-08T18:03:04;8.38;;;4.72;;
14116;SDS011;7137;51.436;6.544;2023-07-08T18:06:05;7.25;;;4.28;;
14116;SDS011;7137;51.436;6.544;2023-07-08T18:09:07;7.93;;;4.85;;
14116;SDS011;7137;51.436;6.544;2023-07-08T18:12:09;7.28;;;5.28;;
14116;SDS011;7137;51.436;6.544;2023-07-08T18:15:15;7.47;;;4.43;;
14116;SDS011;7137;51.436;6.544;2023-07-08T18:18:20;8.60;;;4.32;;
14116;SDS011;7137;51.436;6.544;2023-07-08T18:21:22;7.60;;;4.10;;
14116;SDS011;7137;51.436;6.544;2023-07-08T18:24:25;9.05;;;3.85;;
14116;SDS011;7137;51.436;6.544;2023-07-08T18:27:27;6.45;;;4.20;;
14116;SDS011;7137;51.436;6.544;2023-07-08T18:30:29;8.48;;;4.30;;
14116;SDS011;7137;51.436;6.544;2023-07-08T18:33:33;7.40;;;4.07;;
14116;SDS011;7137;51.436;6.544;2023-07-08T18:36:35;7.32;;;4.35;;
14116;SDS011;7137;51.436;6.544;2023-07-08T18:39:37;7.90;;;4.30;;
14116;SDS011;7137;51.436;6.544;2023-07-08T18:42:39;8.25;;;4.35;;
14116;SDS011;7137;51.436;6.544;2023-07-08T18:45:40;6.22;;;4.50;;
14116;SDS011;7137;51.436;6.544;2023-07-08T18:48:44;6.53;;;4.25;;
14116;SDS011;7137;51.436;6.544;2023-07-08T18:51:45;7.97;;;4.60;;